sensor_id;sensor_type;location;lat;lon;timestamp;temperature;humidity
82001;SHT30;71522;50.870;3.524;2023-11-21T00:01:55;9.55;86.78
82001;SHT30;71522;50.870;3.524;2023-11-21T00:04:21;9.47;86.73
82001;SHT30;71522;50.870;3.524;2023-11-21T00:06:47;9.33;86.57
82001;SHT30;71522;50.870;3.524;2023-11-21T00:09:13;9.27;87.18
82001;SHT30;71522;50.870;3.524;2023-11-21T00:11:41;9.27;87.31
82001;SHT30;71522;50.870;3.524;2023-11-21T00:14:07;9.33;87.53
82001;SHT30;71522;50.870;3.524;2023-11-21T00:16:33;9.34;87.51
82001;SHT30;71522;50.870;3.524;2023-11-21T00:18:59;9.34;87.54
82001;SHT30;71522;50.870;3.524;2023-11-21T00:21:25;9.33;87.46
82001;SHT30;71522;50.870;3.524;2023-11-21T00:23:51;9.38;87.71
82001;SHT30;71522;50.870;3.524;2023-11-21T00:26:17;9.46;87.73
82001;SHT30;71522;50.870;3.524;2023-11-21T00:28:42;9.51;87.61
82001;SHT30;71522;50.870;3.524;2023-11-21T00:31:08;9.62;87.60
82001;SHT30;71522;50.870;3.524;2023-11-21T00:33:34;9.68;87.58
82001;SHT30;71522;50.870;3.524;2023-11-21T00:36:00;9.74;87.42
82001;SHT30;71522;50.870;3.524;2023-11-21T00:38:26;9.75;87.46
82001;SHT30;71522;50.870;3.524;2023-11-21T00:40:53;9.79;87.53
82001;SHT30;71522;50.870;3.524;2023-11-21T00:43:24;9.79;87.63
82001;SHT30;71522;50.870;3.524;2023-11-21T00:45:50;9.74;87.87
82001;SHT30;71522;50.870;3.524;2023-11-21T00:48:16;9.70;88.21
82001;SHT30;71522;50.870;3.524;2023-11-21T00:50:43;9.74;88.24
82001;SHT30;71522;50.870;3.524;2023-11-21T00:53:11;9.77;88.11
82001;SHT30;71522;50.870;3.524;2023-11-21T00:55:37;9.81;88.01
82001;SHT30;71522;50.870;3.524;2023-11-21T00:58:05;9.84;87.88
82001;SHT30;71522;50.870;3.524;2023-11-21T01:00:35;9.86;87.78
82001;SHT30;71522;50.870;3.524;2023-11-21T01:03:01;9.85;87.68
82001;SHT30;71522;50.870;3.524;2023-11-21T01:05:27;9.89;87.66
82001;SHT30;71522;50.870;3.524;2023-11-21T01:07:53;9.88;87.54
82001;SHT30;71522;50.870;3.524;2023-11-21T01:10:19;9.82;87.46
82001;SHT30;71522;50.870;3.524;2023-11-21T01:12:44;9.74;87.49
82001;SHT30;71522;50.870;3.524;2023-11-21T01:15:10;9.68;87.61
82001;SHT30;71522;50.870;3.524;2023-11-21T01:17:38;9.65;87.73
82001;SHT30;71522;50.870;3.524;2023-11-21T01:20:04;9.65;87.73
82001;SHT30;71522;50.870;3.524;2023-11-21T01:22:40;9.65;87.82
82001;SHT30;71522;50.870;3.524;2023-11-21T01:25:06;9.65;87.83
82001;SHT30;71522;50.870;3.524;2023-11-21T01:27:33;9.74;87.88
82001;SHT30;71522;50.870;3.524;2023-11-21T01:30:00;9.77;87.66
82001;SHT30;71522;50.870;3.524;2023-11-21T01:32:25;9.79;87.62
82001;SHT30;71522;50.870;3.524;2023-11-21T01:34:51;9.78;87.65
82001;SHT30;71522;50.870;3.524;2023-11-21T01:37:19;9.74;87.72
82001;SHT30;71522;50.870;3.524;2023-11-21T01:39:45;9.70;87.91
82001;SHT30;71522;50.870;3.524;2023-11-21T01:42:12;9.67;88.04
82001;SHT30;71522;50.870;3.524;2023-11-21T01:44:39;9.64;88.25
82001;SHT30;71522;50.870;3.524;2023-11-21T01:47:06;9.61;88.26
82001;SHT30;71522;50.870;3.524;2023-11-21T01:49:35;9.62;88.34
82001;SHT30;71522;50.870;3.524;2023-11-21T01:52:02;9.58;88.36
82001;SHT30;71522;50.870;3.524;2023-11-21T01:54:29;9.61;88.41
82001;SHT30;71522;50.870;3.524;2023-11-21T01:56:58;9.58;88.58
82001;SHT30;71522;50.870;3.524;2023-11-21T01:59:37;9.61;88.62
82001;SHT30;71522;50.870;3.524;2023-11-21T02:02:07;9.61;88.64
82001;SHT30;71522;50.870;3.524;2023-11-21T02:04:34;9.64;88.58
82001;SHT30;71522;50.870;3.524;2023-11-21T02:07:00;9.61;88.58
82001;SHT30;71522;50.870;3.524;2023-11-21T02:09:27;9.59;88.61
82001;SHT30;71522;50.870;3.524;2023-11-21T02:11:54;9.58;88.64
82001;SHT30;71522;50.870;3.524;2023-11-21T02:14:22;9.55;88.76
82001;SHT30;71522;50.870;3.524;2023-11-21T02:16:50;9.55;88.84
82001;SHT30;71522;50.870;3.524;2023-11-21T02:19:19;9.57;88.91
82001;SHT30;71522;50.870;3.524;2023-11-21T02:21:54;9.58;88.79
82001;SHT30;71522;50.870;3.524;2023-11-21T02:24:23;9.61;88.76
82001;SHT30;71522;50.870;3.524;2023-11-21T02:26:50;9.58;88.80
82001;SHT30;71522;50.870;3.524;2023-11-21T02:29:19;9.59;88.96
82001;SHT30;71522;50.870;3.524;2023-11-21T02:31:52;9.58;88.99
82001;SHT30;71522;50.870;3.524;2023-11-21T02:34:21;9.62;88.98
82001;SHT30;71522;50.870;3.524;2023-11-21T02:36:47;9.62;89.01
82001;SHT30;71522;50.870;3.524;2023-11-21T02:39:17;9.61;88.98
82001;SHT30;71522;50.870;3.524;2023-11-21T02:41:43;9.62;89.01
82001;SHT30;71522;50.870;3.524;2023-11-21T02:44:10;9.65;88.95
82001;SHT30;71522;50.870;3.524;2023-11-21T02:46:36;9.67;88.93
82001;SHT30;71522;50.870;3.524;2023-11-21T02:49:03;9.67;88.97
82001;SHT30;71522;50.870;3.524;2023-11-21T02:51:30;9.70;88.90
82001;SHT30;71522;50.870;3.524;2023-11-21T02:53:56;9.73;88.78
82001;SHT30;71522;50.870;3.524;2023-11-21T02:56:28;9.74;88.74
82001;SHT30;71522;50.870;3.524;2023-11-21T02:58:59;9.74;88.83
82001;SHT30;71522;50.870;3.524;2023-11-21T03:01:26;9.77;88.77
82001;SHT30;71522;50.870;3.524;2023-11-21T03:03:52;9.81;88.76
82001;SHT30;71522;50.870;3.524;2023-11-21T03:06:19;9.82;88.69
82001;SHT30;71522;50.870;3.524;2023-11-21T03:08:45;9.86;88.55
82001;SHT30;71522;50.870;3.524;2023-11-21T03:11:12;9.88;88.46
82001;SHT30;71522;50.870;3.524;2023-11-21T03:13:39;9.92;88.46
82001;SHT30;71522;50.870;3.524;2023-11-21T03:16:11;9.94;88.40
82001;SHT30;71522;50.870;3.524;2023-11-21T03:18:40;9.99;88.41
82001;SHT30;71522;50.870;3.524;2023-11-21T03:21:07;9.99;88.43
82001;SHT30;71522;50.870;3.524;2023-11-21T03:23:37;9.98;88.49
82001;SHT30;71522;50.870;3.524;2023-11-21T03:26:03;9.96;88.58
82001;SHT30;71522;50.870;3.524;2023-11-21T03:28:29;9.96;88.65
82001;SHT30;71522;50.870;3.524;2023-11-21T03:30:55;9.86;88.92
82001;SHT30;71522;50.870;3.524;2023-11-21T03:33:22;9.86;89.02
82001;SHT30;71522;50.870;3.524;2023-11-21T03:35:48;9.91;88.97
82001;SHT30;71522;50.870;3.524;2023-11-21T03:38:15;9.89;89.06
82001;SHT30;71522;50.870;3.524;2023-11-21T03:40:42;9.91;89.05
82001;SHT30;71522;50.870;3.524;2023-11-21T03:43:08;9.88;89.03
82001;SHT30;71522;50.870;3.524;2023-11-21T03:45:34;9.92;89.07
82001;SHT30;71522;50.870;3.524;2023-11-21T03:47:59;9.98;88.97
82001;SHT30;71522;50.870;3.524;2023-11-21T03:50:29;9.96;89.03
82001;SHT30;71522;50.870;3.524;2023-11-21T03:52:54;9.96;89.11
82001;SHT30;71522;50.870;3.524;2023-11-21T03:55:20;9.98;89.17
82001;SHT30;71522;50.870;3.524;2023-11-21T03:57:49;9.99;89.15
82001;SHT30;71522;50.870;3.524;2023-11-21T04:00:16;10.02;89.24
82001;SHT30;71522;50.870;3.524;2023-11-21T04:02:41;10.08;89.16
82001;SHT30;71522;50.870;3.524;2023-11-21T04:05:07;10.08;89.13
82001;SHT30;71522;50.870;3.524;2023-11-21T04:07:33;10.13;89.07
82001;SHT30;71522;50.870;3.524;2023-11-21T04:09:59;10.19;88.91
82001;SHT30;71522;50.870;3.524;2023-11-21T04:12:25;10.25;88.79
82001;SHT30;71522;50.870;3.524;2023-11-21T04:14:51;10.32;88.59
82001;SHT30;71522;50.870;3.524;2023-11-21T04:17:19;10.36;88.33
82001;SHT30;71522;50.870;3.524;2023-11-21T04:19:45;10.42;88.28
82001;SHT30;71522;50.870;3.524;2023-11-21T04:22:11;10.46;87.99
82001;SHT30;71522;50.870;3.524;2023-11-21T04:24:37;10.52;87.91
82001;SHT30;71522;50.870;3.524;2023-11-21T04:27:03;10.52;87.80
82001;SHT30;71522;50.870;3.524;2023-11-21T04:29:29;10.53;87.71
82001;SHT30;71522;50.870;3.524;2023-11-21T04:31:55;10.56;87.71
82001;SHT30;71522;50.870;3.524;2023-11-21T04:34:21;10.56;87.72
82001;SHT30;71522;50.870;3.524;2023-11-21T04:36:46;10.59;87.71
82001;SHT30;71522;50.870;3.524;2023-11-21T04:39:12;10.57;87.73
82001;SHT30;71522;50.870;3.524;2023-11-21T04:41:38;10.57;87.75
82001;SHT30;71522;50.870;3.524;2023-11-21T04:44:05;10.59;87.80
82001;SHT30;71522;50.870;3.524;2023-11-21T04:46:31;10.56;87.87
82001;SHT30;71522;50.870;3.524;2023-11-21T04:48:58;10.53;88.00
82001;SHT30;71522;50.870;3.524;2023-11-21T04:51:25;10.53;88.06
82001;SHT30;71522;50.870;3.524;2023-11-21T04:53:51;10.53;88.14
82001;SHT30;71522;50.870;3.524;2023-11-21T04:56:16;10.53;88.14
82001;SHT30;71522;50.870;3.524;2023-11-21T04:58:42;10.53;88.20
82001;SHT30;71522;50.870;3.524;2023-11-21T05:01:08;10.53;88.21
82001;SHT30;71522;50.870;3.524;2023-11-21T05:03:34;10.56;88.22
82001;SHT30;71522;50.870;3.524;2023-11-21T05:06:00;10.53;88.30
82001;SHT30;71522;50.870;3.524;2023-11-21T05:08:26;10.53;88.35
82001;SHT30;71522;50.870;3.524;2023-11-21T05:10:52;10.52;88.42
82001;SHT30;71522;50.870;3.524;2023-11-21T05:13:19;10.53;88.49
82001;SHT30;71522;50.870;3.524;2023-11-21T05:15:45;10.53;88.56
82001;SHT30;71522;50.870;3.524;2023-11-21T05:18:11;10.52;88.60
82001;SHT30;71522;50.870;3.524;2023-11-21T05:20:39;10.47;88.70
82001;SHT30;71522;50.870;3.524;2023-11-21T05:23:06;10.50;88.76
82001;SHT30;71522;50.870;3.524;2023-11-21T05:25:34;10.52;88.72
82001;SHT30;71522;50.870;3.524;2023-11-21T05:28:04;10.52;88.70
82001;SHT30;71522;50.870;3.524;2023-11-21T05:30:30;10.53;88.68
82001;SHT30;71522;50.870;3.524;2023-11-21T05:32:56;10.54;88.56
82001;SHT30;71522;50.870;3.524;2023-11-21T05:35:21;10.60;88.57
82001;SHT30;71522;50.870;3.524;2023-11-21T05:37:47;10.61;88.43
82001;SHT30;71522;50.870;3.524;2023-11-21T05:40:13;10.65;88.30
82001;SHT30;71522;50.870;3.524;2023-11-21T05:42:40;10.70;88.12
82001;SHT30;71522;50.870;3.524;2023-11-21T05:45:07;10.70;88.04
82001;SHT30;71522;50.870;3.524;2023-11-21T05:47:46;10.63;88.15
82001;SHT30;71522;50.870;3.524;2023-11-21T05:50:14;10.63;88.29
82001;SHT30;71522;50.870;3.524;2023-11-21T05:52:41;10.60;88.36
82001;SHT30;71522;50.870;3.524;2023-11-21T05:55:08;10.63;88.29
82001;SHT30;71522;50.870;3.524;2023-11-21T05:57:38;10.63;88.18
82001;SHT30;71522;50.870;3.524;2023-11-21T06:00:06;10.68;88.05
82001;SHT30;71522;50.870;3.524;2023-11-21T06:02:42;10.71;87.96
82001;SHT30;71522;50.870;3.524;2023-11-21T06:05:08;10.67;87.91
82001;SHT30;71522;50.870;3.524;2023-11-21T06:07:35;10.67;87.97
82001;SHT30;71522;50.870;3.524;2023-11-21T06:10:02;10.68;88.04
82001;SHT30;71522;50.870;3.524;2023-11-21T06:12:31;10.65;88.05
82001;SHT30;71522;50.870;3.524;2023-11-21T06:15:04;10.67;88.11
82001;SHT30;71522;50.870;3.524;2023-11-21T06:17:31;10.73;87.99
82001;SHT30;71522;50.870;3.524;2023-11-21T06:19:57;10.71;87.91
82001;SHT30;71522;50.870;3.524;2023-11-21T06:22:22;10.71;87.93
82001;SHT30;71522;50.870;3.524;2023-11-21T06:24:48;10.75;87.83
82001;SHT30;71522;50.870;3.524;2023-11-21T06:27:14;10.75;87.80
82001;SHT30;71522;50.870;3.524;2023-11-21T06:29:39;10.78;87.71
82001;SHT30;71522;50.870;3.524;2023-11-21T06:32:07;10.78;87.78
82001;SHT30;71522;50.870;3.524;2023-11-21T06:34:33;10.80;87.73
82001;SHT30;71522;50.870;3.524;2023-11-21T06:36:59;10.81;87.62
82001;SHT30;71522;50.870;3.524;2023-11-21T06:39:25;10.75;87.68
82001;SHT30;71522;50.870;3.524;2023-11-21T06:41:51;10.71;87.78
82001;SHT30;71522;50.870;3.524;2023-11-21T06:44:16;10.60;88.01
82001;SHT30;71522;50.870;3.524;2023-11-21T06:46:42;10.59;88.14
82001;SHT30;71522;50.870;3.524;2023-11-21T06:49:08;10.57;88.25
82001;SHT30;71522;50.870;3.524;2023-11-21T06:51:34;10.63;88.30
82001;SHT30;71522;50.870;3.524;2023-11-21T06:54:00;10.64;88.27
82001;SHT30;71522;50.870;3.524;2023-11-21T06:56:26;10.60;88.53
82001;SHT30;71522;50.870;3.524;2023-11-21T06:58:59;10.50;89.43
82001;SHT30;71522;50.870;3.524;2023-11-21T07:01:24;10.53;89.47
82001;SHT30;71522;50.870;3.524;2023-11-21T07:03:50;10.50;89.55
82001;SHT30;71522;50.870;3.524;2023-11-21T07:06:17;10.50;89.66
82001;SHT30;71522;50.870;3.524;2023-11-21T07:08:42;10.50;89.58
82001;SHT30;71522;50.870;3.524;2023-11-21T07:11:08;10.46;89.72
82001;SHT30;71522;50.870;3.524;2023-11-21T07:13:34;10.43;90.01
82001;SHT30;71522;50.870;3.524;2023-11-21T07:16:00;10.39;90.00
82001;SHT30;71522;50.870;3.524;2023-11-21T07:18:26;10.39;90.19
82001;SHT30;71522;50.870;3.524;2023-11-21T07:20:52;10.40;90.11
82001;SHT30;71522;50.870;3.524;2023-11-21T07:23:17;10.47;90.05
82001;SHT30;71522;50.870;3.524;2023-11-21T07:25:43;10.44;90.12
82001;SHT30;71522;50.870;3.524;2023-11-21T07:28:09;10.44;90.09
82001;SHT30;71522;50.870;3.524;2023-11-21T07:30:35;10.46;90.04
82001;SHT30;71522;50.870;3.524;2023-11-21T07:33:01;10.49;89.81
82001;SHT30;71522;50.870;3.524;2023-11-21T07:35:26;10.43;89.88
82001;SHT30;71522;50.870;3.524;2023-11-21T07:37:52;10.47;89.89
82001;SHT30;71522;50.870;3.524;2023-11-21T07:40:18;10.46;90.09
82001;SHT30;71522;50.870;3.524;2023-11-21T07:42:43;10.53;90.10
82001;SHT30;71522;50.870;3.524;2023-11-21T07:45:09;10.47;90.14
82001;SHT30;71522;50.870;3.524;2023-11-21T07:47:35;10.46;90.25
82001;SHT30;71522;50.870;3.524;2023-11-21T07:50:04;10.59;89.99
82001;SHT30;71522;50.870;3.524;2023-11-21T07:52:30;10.67;89.75
82001;SHT30;71522;50.870;3.524;2023-11-21T07:54:56;10.78;89.35
82001;SHT30;71522;50.870;3.524;2023-11-21T07:57:22;10.80;89.08
82001;SHT30;71522;50.870;3.524;2023-11-21T07:59:48;10.78;89.16
82001;SHT30;71522;50.870;3.524;2023-11-21T08:02:13;10.84;89.24
82001;SHT30;71522;50.870;3.524;2023-11-21T08:04:41;10.84;89.09
82001;SHT30;71522;50.870;3.524;2023-11-21T08:07:07;10.84;89.22
82001;SHT30;71522;50.870;3.524;2023-11-21T08:09:33;10.83;89.22
82001;SHT30;71522;50.870;3.524;2023-11-21T08:12:00;10.84;89.34
82001;SHT30;71522;50.870;3.524;2023-11-21T08:14:28;10.88;89.32
82001;SHT30;71522;50.870;3.524;2023-11-21T08:16:53;10.85;89.50
82001;SHT30;71522;50.870;3.524;2023-11-21T08:19:23;10.87;89.46
82001;SHT30;71522;50.870;3.524;2023-11-21T08:21:50;10.93;89.40
82001;SHT30;71522;50.870;3.524;2023-11-21T08:24:16;10.88;89.65
82001;SHT30;71522;50.870;3.524;2023-11-21T08:26:42;10.93;89.55
82001;SHT30;71522;50.870;3.524;2023-11-21T08:29:11;10.97;89.52
82001;SHT30;71522;50.870;3.524;2023-11-21T08:31:40;10.98;89.40
82001;SHT30;71522;50.870;3.524;2023-11-21T08:34:07;11.01;89.54
82001;SHT30;71522;50.870;3.524;2023-11-21T08:36:34;11.02;89.73
82001;SHT30;71522;50.870;3.524;2023-11-21T08:39:00;11.04;89.62
82001;SHT30;71522;50.870;3.524;2023-11-21T08:41:26;10.98;89.83
82001;SHT30;71522;50.870;3.524;2023-11-21T08:43:53;10.97;89.79
82001;SHT30;71522;50.870;3.524;2023-11-21T08:46:20;11.00;89.68
82001;SHT30;71522;50.870;3.524;2023-11-21T08:48:46;10.98;89.74
82001;SHT30;71522;50.870;3.524;2023-11-21T08:51:12;11.04;89.62
82001;SHT30;71522;50.870;3.524;2023-11-21T08:53:40;11.05;89.72
82001;SHT30;71522;50.870;3.524;2023-11-21T08:56:06;11.05;89.80
82001;SHT30;71522;50.870;3.524;2023-11-21T08:58:32;11.01;89.80
82001;SHT30;71522;50.870;3.524;2023-11-21T09:00:58;11.11;89.77
82001;SHT30;71522;50.870;3.524;2023-11-21T09:03:27;11.16;89.39
82001;SHT30;71522;50.870;3.524;2023-11-21T09:05:53;11.08;89.27
82001;SHT30;71522;50.870;3.524;2023-11-21T09:08:19;11.07;89.10
82001;SHT30;71522;50.870;3.524;2023-11-21T09:10:45;11.16;88.96
82001;SHT30;71522;50.870;3.524;2023-11-21T09:13:13;11.12;89.01
82001;SHT30;71522;50.870;3.524;2023-11-21T09:15:38;11.25;88.59
82001;SHT30;71522;50.870;3.524;2023-11-21T09:18:09;11.19;88.91
82001;SHT30;71522;50.870;3.524;2023-11-21T09:20:35;11.21;88.63
82001;SHT30;71522;50.870;3.524;2023-11-21T09:23:01;11.29;88.54
82001;SHT30;71522;50.870;3.524;2023-11-21T09:25:31;11.29;88.63
82001;SHT30;71522;50.870;3.524;2023-11-21T09:27:56;11.35;88.27
82001;SHT30;71522;50.870;3.524;2023-11-21T09:30:23;11.39;88.27
82001;SHT30;71522;50.870;3.524;2023-11-21T09:32:50;11.49;88.12
82001;SHT30;71522;50.870;3.524;2023-11-21T09:35:16;11.51;88.28
82001;SHT30;71522;50.870;3.524;2023-11-21T09:37:44;11.51;88.49
82001;SHT30;71522;50.870;3.524;2023-11-21T09:40:11;11.39;88.93
82001;SHT30;71522;50.870;3.524;2023-11-21T09:42:54;11.52;87.93
82001;SHT30;71522;50.870;3.524;2023-11-21T09:45:32;11.49;88.37
82001;SHT30;71522;50.870;3.524;2023-11-21T09:48:00;11.63;88.09
82001;SHT30;71522;50.870;3.524;2023-11-21T09:50:27;11.76;87.95
82001;SHT30;71522;50.870;3.524;2023-11-21T09:53:18;11.89;87.44
82001;SHT30;71522;50.870;3.524;2023-11-21T09:55:53;12.20;86.72
82001;SHT30;71522;50.870;3.524;2023-11-21T09:58:20;12.30;86.73
82001;SHT30;71522;50.870;3.524;2023-11-21T10:00:54;12.27;86.49
82001;SHT30;71522;50.870;3.524;2023-11-21T10:03:22;12.37;85.76
82001;SHT30;71522;50.870;3.524;2023-11-21T10:05:50;12.24;85.96
82001;SHT30;71522;50.870;3.524;2023-11-21T10:08:16;12.20;86.57
82001;SHT30;71522;50.870;3.524;2023-11-21T10:10:46;12.28;86.09
82001;SHT30;71522;50.870;3.524;2023-11-21T10:13:14;12.44;85.82
82001;SHT30;71522;50.870;3.524;2023-11-21T10:15:43;12.46;85.72
82001;SHT30;71522;50.870;3.524;2023-11-21T10:18:15;12.41;85.44
82001;SHT30;71522;50.870;3.524;2023-11-21T10:20:41;12.39;85.47
82001;SHT30;71522;50.870;3.524;2023-11-21T10:23:08;12.38;85.88
82001;SHT30;71522;50.870;3.524;2023-11-21T10:25:37;12.38;85.72
82001;SHT30;71522;50.870;3.524;2023-11-21T10:28:03;12.32;86.03
82001;SHT30;71522;50.870;3.524;2023-11-21T10:30:36;12.22;86.41
82001;SHT30;71522;50.870;3.524;2023-11-21T10:33:06;12.21;86.47
82001;SHT30;71522;50.870;3.524;2023-11-21T10:35:48;12.11;86.52
82001;SHT30;71522;50.870;3.524;2023-11-21T10:38:21;12.18;86.52
82001;SHT30;71522;50.870;3.524;2023-11-21T10:40:52;12.18;86.31
82001;SHT30;71522;50.870;3.524;2023-11-21T10:43:18;12.25;86.42
82001;SHT30;71522;50.870;3.524;2023-11-21T10:45:44;12.27;86.44
82001;SHT30;71522;50.870;3.524;2023-11-21T10:48:12;12.27;86.81
82001;SHT30;71522;50.870;3.524;2023-11-21T10:50:43;12.35;86.13
82001;SHT30;71522;50.870;3.524;2023-11-21T10:53:10;12.42;86.46
82001;SHT30;71522;50.870;3.524;2023-11-21T10:55:49;12.41;85.96
82001;SHT30;71522;50.870;3.524;2023-11-21T10:58:17;12.48;85.98
82001;SHT30;71522;50.870;3.524;2023-11-21T11:00:43;12.58;85.90
82001;SHT30;71522;50.870;3.524;2023-11-21T11:03:10;12.53;85.16
82001;SHT30;71522;50.870;3.524;2023-11-21T11:05:40;12.62;84.80
82001;SHT30;71522;50.870;3.524;2023-11-21T11:08:14;12.75;85.01
82001;SHT30;71522;50.870;3.524;2023-11-21T11:10:45;12.79;84.17
82001;SHT30;71522;50.870;3.524;2023-11-21T11:13:13;12.79;84.10
82001;SHT30;71522;50.870;3.524;2023-11-21T11:15:40;12.87;84.31
82001;SHT30;71522;50.870;3.524;2023-11-21T11:18:07;12.73;82.09
82001;SHT30;71522;50.870;3.524;2023-11-21T11:20:37;12.82;82.62
82001;SHT30;71522;50.870;3.524;2023-11-21T11:31:55;12.83;81.75
82001;SHT30;71522;50.870;3.524;2023-11-21T11:34:42;12.66;81.57
82001;SHT30;71522;50.870;3.524;2023-11-21T11:37:12;12.73;82.08
82001;SHT30;71522;50.870;3.524;2023-11-21T11:39:39;12.76;82.09
82001;SHT30;71522;50.870;3.524;2023-11-21T11:42:15;12.58;82.10
82001;SHT30;71522;50.870;3.524;2023-11-21T11:47:21;12.59;81.34
82001;SHT30;71522;50.870;3.524;2023-11-21T11:50:03;12.76;81.83
82001;SHT30;71522;50.870;3.524;2023-11-21T11:52:40;12.83;81.25
82001;SHT30;71522;50.870;3.524;2023-11-21T11:55:11;12.68;80.65
82001;SHT30;71522;50.870;3.524;2023-11-21T11:57:40;12.52;80.15
82001;SHT30;71522;50.870;3.524;2023-11-21T12:00:16;12.38;79.57
82001;SHT30;71522;50.870;3.524;2023-11-21T12:02:48;12.48;79.79
82001;SHT30;71522;50.870;3.524;2023-11-21T12:05:16;12.62;79.85
82001;SHT30;71522;50.870;3.524;2023-11-21T12:07:51;12.46;79.47
82001;SHT30;71522;50.870;3.524;2023-11-21T12:10:25;12.52;80.88
82001;SHT30;71522;50.870;3.524;2023-11-21T12:13:03;12.34;80.55
82001;SHT30;71522;50.870;3.524;2023-11-21T12:15:31;12.58;81.97
82001;SHT30;71522;50.870;3.524;2023-11-21T12:17:57;12.55;81.32
82001;SHT30;71522;50.870;3.524;2023-11-21T12:20:27;12.48;80.39
82001;SHT30;71522;50.870;3.524;2023-11-21T12:22:55;12.59;80.73
82001;SHT30;71522;50.870;3.524;2023-11-21T12:25:25;12.63;80.54
82001;SHT30;71522;50.870;3.524;2023-11-21T12:27:55;12.52;80.06
82001;SHT30;71522;50.870;3.524;2023-11-21T12:30:25;12.52;79.63
82001;SHT30;71522;50.870;3.524;2023-11-21T12:32:55;12.42;79.60
82001;SHT30;71522;50.870;3.524;2023-11-21T12:35:26;12.37;78.57
82001;SHT30;71522;50.870;3.524;2023-11-21T12:37:54;12.27;79.29
82001;SHT30;71522;50.870;3.524;2023-11-21T12:40:21;12.27;79.19
82001;SHT30;71522;50.870;3.524;2023-11-21T12:42:52;12.14;79.96
82001;SHT30;71522;50.870;3.524;2023-11-21T12:45:26;12.17;79.60
82001;SHT30;71522;50.870;3.524;2023-11-21T12:48:03;12.11;79.78
82001;SHT30;71522;50.870;3.524;2023-11-21T12:50:34;12.20;79.75
82001;SHT30;71522;50.870;3.524;2023-11-21T12:53:03;12.20;79.64
82001;SHT30;71522;50.870;3.524;2023-11-21T12:55:32;12.21;79.63
82001;SHT30;71522;50.870;3.524;2023-11-21T12:58:02;12.08;79.17
82001;SHT30;71522;50.870;3.524;2023-11-21T13:00:48;12.13;78.79
82001;SHT30;71522;50.870;3.524;2023-11-21T13:03:16;12.07;80.10
82001;SHT30;71522;50.870;3.524;2023-11-21T13:05:45;12.04;78.93
82001;SHT30;71522;50.870;3.524;2023-11-21T13:08:13;12.10;79.70
82001;SHT30;71522;50.870;3.524;2023-11-21T13:10:44;12.04;79.38
82001;SHT30;71522;50.870;3.524;2023-11-21T13:13:13;11.98;80.03
82001;SHT30;71522;50.870;3.524;2023-11-21T13:15:53;11.91;79.77
82001;SHT30;71522;50.870;3.524;2023-11-21T13:18:27;11.93;80.01
82001;SHT30;71522;50.870;3.524;2023-11-21T13:20:57;11.94;79.90
82001;SHT30;71522;50.870;3.524;2023-11-21T13:23:23;11.91;80.36
82001;SHT30;71522;50.870;3.524;2023-11-21T13:25:50;11.98;80.80
82001;SHT30;71522;50.870;3.524;2023-11-21T13:28:15;11.90;80.46
82001;SHT30;71522;50.870;3.524;2023-11-21T13:30:43;12.10;79.97
82001;SHT30;71522;50.870;3.524;2023-11-21T13:33:11;12.17;79.83
82001;SHT30;71522;50.870;3.524;2023-11-21T13:35:43;12.27;79.69
82001;SHT30;71522;50.870;3.524;2023-11-21T13:38:18;12.24;79.43
82001;SHT30;71522;50.870;3.524;2023-11-21T13:40:50;12.30;80.32
82001;SHT30;71522;50.870;3.524;2023-11-21T13:43:21;12.37;80.64
82001;SHT30;71522;50.870;3.524;2023-11-21T13:45:49;12.27;80.25
82001;SHT30;71522;50.870;3.524;2023-11-21T13:48:26;12.08;79.56
82001;SHT30;71522;50.870;3.524;2023-11-21T13:50:57;12.14;79.32
82001;SHT30;71522;50.870;3.524;2023-11-21T13:53:26;12.13;79.55
82001;SHT30;71522;50.870;3.524;2023-11-21T13:55:53;12.20;80.26
82001;SHT30;71522;50.870;3.524;2023-11-21T13:58:24;12.27;80.43
82001;SHT30;71522;50.870;3.524;2023-11-21T14:01:08;12.32;79.71
82001;SHT30;71522;50.870;3.524;2023-11-21T14:03:52;12.24;79.53
82001;SHT30;71522;50.870;3.524;2023-11-21T14:06:23;12.08;78.90
82001;SHT30;71522;50.870;3.524;2023-11-21T14:08:58;12.00;78.58
82001;SHT30;71522;50.870;3.524;2023-11-21T14:11:23;11.93;79.94
82001;SHT30;71522;50.870;3.524;2023-11-21T14:13:49;11.97;78.35
82001;SHT30;71522;50.870;3.524;2023-11-21T14:16:15;11.94;79.31
82001;SHT30;71522;50.870;3.524;2023-11-21T14:18:43;11.97;79.55
82001;SHT30;71522;50.870;3.524;2023-11-21T14:21:24;11.86;78.73
82001;SHT30;71522;50.870;3.524;2023-11-21T14:23:49;11.86;78.97
82001;SHT30;71522;50.870;3.524;2023-11-21T14:26:15;11.84;79.97
82001;SHT30;71522;50.870;3.524;2023-11-21T14:28:42;11.74;79.77
82001;SHT30;71522;50.870;3.524;2023-11-21T14:31:08;11.81;80.63
82001;SHT30;71522;50.870;3.524;2023-11-21T14:33:39;11.89;80.66
82001;SHT30;71522;50.870;3.524;2023-11-21T14:36:06;11.97;80.58
82001;SHT30;71522;50.870;3.524;2023-11-21T14:38:37;11.98;80.28
82001;SHT30;71522;50.870;3.524;2023-11-21T14:41:05;12.10;80.97
82001;SHT30;71522;50.870;3.524;2023-11-21T14:43:35;12.18;80.58
82001;SHT30;71522;50.870;3.524;2023-11-21T14:46:02;12.20;80.77
82001;SHT30;71522;50.870;3.524;2023-11-21T14:48:29;12.01;80.62
82001;SHT30;71522;50.870;3.524;2023-11-21T14:51:13;12.17;80.89
82001;SHT30;71522;50.870;3.524;2023-11-21T14:53:55;12.30;81.09
82001;SHT30;71522;50.870;3.524;2023-11-21T14:56:24;12.31;80.41
82001;SHT30;71522;50.870;3.524;2023-11-21T14:58:57;12.34;80.63
82001;SHT30;71522;50.870;3.524;2023-11-21T15:01:25;12.30;80.53
82001;SHT30;71522;50.870;3.524;2023-11-21T15:04:09;12.18;80.22
82001;SHT30;71522;50.870;3.524;2023-11-21T15:06:47;12.00;81.11
82001;SHT30;71522;50.870;3.524;2023-11-21T15:09:13;11.95;81.00
82001;SHT30;71522;50.870;3.524;2023-11-21T15:11:39;12.02;81.14
82001;SHT30;71522;50.870;3.524;2023-11-21T15:14:05;12.01;80.82
82001;SHT30;71522;50.870;3.524;2023-11-21T15:16:34;12.07;80.53
82001;SHT30;71522;50.870;3.524;2023-11-21T15:19:04;11.90;80.88
82001;SHT30;71522;50.870;3.524;2023-11-21T15:21:30;11.90;81.39
82001;SHT30;71522;50.870;3.524;2023-11-21T15:23:58;11.87;81.52
82001;SHT30;71522;50.870;3.524;2023-11-21T15:26:23;11.81;82.02
82001;SHT30;71522;50.870;3.524;2023-11-21T15:28:49;11.70;82.56
82001;SHT30;71522;50.870;3.524;2023-11-21T15:31:15;11.69;82.67
82001;SHT30;71522;50.870;3.524;2023-11-21T15:33:45;11.56;82.15
82001;SHT30;71522;50.870;3.524;2023-11-21T15:36:11;11.59;82.21
82001;SHT30;71522;50.870;3.524;2023-11-21T15:38:39;11.58;81.69
82001;SHT30;71522;50.870;3.524;2023-11-21T15:41:04;11.59;81.92
82001;SHT30;71522;50.870;3.524;2023-11-21T15:43:33;11.39;81.40
82001;SHT30;71522;50.870;3.524;2023-11-21T15:45:58;11.26;81.70
82001;SHT30;71522;50.870;3.524;2023-11-21T15:48:27;11.25;81.91
82001;SHT30;71522;50.870;3.524;2023-11-21T15:50:53;11.21;81.98
82001;SHT30;71522;50.870;3.524;2023-11-21T15:53:23;11.10;82.35